createdAt,value
2022-12-16T00:01:13.645Z,15.00
2022-12-16T00:03:48.150Z,15.73
2022-12-16T00:06:17.434Z,13.60
2022-12-16T00:08:45.996Z,12.60
2022-12-16T00:11:16.320Z,17.93
2022-12-16T00:13:45.277Z,15.37
2022-12-16T00:16:16.022Z,15.73
2022-12-16T00:18:48.125Z,14.70
2022-12-16T00:21:19.374Z,14.10
2022-12-16T00:23:48.372Z,14.53
2022-12-16T00:26:18.605Z,14.77
2022-12-16T00:28:47.475Z,14.30
2022-12-16T00:31:16.581Z,12.90
2022-12-16T00:33:47.376Z,15.67
2022-12-16T00:36:17.441Z,14.60
2022-12-16T00:38:45.778Z,13.40
2022-12-16T00:41:14.581Z,14.43
2022-12-16T00:43:43.720Z,11.90
2022-12-16T00:46:12.804Z,15.50
2022-12-16T00:48:42.349Z,12.47
2022-12-16T00:51:13.692Z,13.30
2022-12-16T00:53:45.529Z,15.00
2022-12-16T00:56:18.393Z,15.00
2022-12-16T00:58:46.985Z,14.10
2022-12-16T01:01:16.441Z,14.87
2022-12-16T01:03:45.808Z,13.57
2022-12-16T01:06:18.239Z,13.90
2022-12-16T01:08:49.153Z,12.60
2022-12-16T01:11:18.446Z,11.10
2022-12-16T01:13:48.307Z,14.00
2022-12-16T01:16:17.066Z,16.23
2022-12-16T01:18:45.595Z,14.50
2022-12-16T01:21:17.189Z,14.50
2022-12-16T01:23:50.469Z,13.00
2022-12-16T01:26:20.669Z,14.20
2022-12-16T01:28:50.821Z,13.77
2022-12-16T01:31:23.555Z,14.07
2022-12-16T01:33:52.929Z,13.73
2022-12-16T01:36:23.584Z,14.90
2022-12-16T01:38:52.743Z,14.00
2022-12-16T01:41:22.495Z,14.97
2022-12-16T01:43:51.062Z,15.97
2022-12-16T01:46:24.909Z,15.10
2022-12-16T01:48:59.081Z,17.33
2022-12-16T01:51:35.153Z,14.37
2022-12-16T01:54:08.526Z,16.90
2022-12-16T01:56:41.911Z,16.30
2022-12-16T01:59:12.202Z,20.70
2022-12-16T02:01:40.846Z,20.83
2022-12-16T02:04:09.431Z,21.50
2022-12-16T02:06:39.672Z,18.47
2022-12-16T02:09:11.819Z,18.97
2022-12-16T02:12:13.139Z,20.43
2022-12-16T02:14:56.051Z,21.37
2022-12-16T02:17:31.840Z,21.13
2022-12-16T02:20:32.387Z,23.00
2022-12-16T02:23:32.213Z,22.10
2022-12-16T02:26:25.200Z,21.57
2022-12-16T02:29:19.773Z,23.13
2022-12-16T02:31:58.119Z,25.57
2022-12-16T02:34:33.877Z,25.77
2022-12-16T02:37:16.483Z,26.40
2022-12-16T02:39:52.216Z,24.37
2022-12-16T02:42:28.029Z,22.93
2022-12-16T02:45:02.380Z,22.70
2022-12-16T02:47:33.571Z,21.97
2022-12-16T02:50:02.991Z,21.70
2022-12-16T02:52:34.756Z,23.00
2022-12-16T02:55:06.066Z,23.30
2022-12-16T02:57:59.796Z,23.50
2022-12-16T03:00:30.143Z,20.57
2022-12-16T03:03:10.268Z,22.63
2022-12-16T03:05:46.046Z,22.17
2022-12-16T03:08:19.051Z,21.70
2022-12-16T03:11:00.161Z,19.43
2022-12-16T03:13:32.865Z,24.87
2022-12-16T03:16:04.528Z,21.87
2022-12-16T03:18:36.265Z,22.90
2022-12-16T03:21:10.279Z,23.80
2022-12-16T03:23:47.718Z,23.27
2022-12-16T03:26:21.922Z,23.33
2022-12-16T03:28:54.818Z,20.70
2022-12-16T03:31:33.185Z,20.57
2022-12-16T03:34:09.017Z,16.10
2022-12-16T03:36:39.582Z,20.93
2022-12-16T03:39:10.151Z,25.83
2022-12-16T03:41:40.761Z,21.97
2022-12-16T03:44:09.880Z,22.37
2022-12-16T03:46:38.582Z,25.13
2022-12-16T03:49:08.651Z,25.80
2022-12-16T03:51:37.998Z,26.37
2022-12-16T03:54:09.115Z,23.20
2022-12-16T03:56:37.821Z,24.90
2022-12-16T03:59:06.991Z,23.77
2022-12-16T04:01:36.354Z,23.57
2022-12-16T04:04:05.515Z,23.70
2022-12-16T04:06:36.996Z,22.47
2022-12-16T04:09:07.088Z,26.90
2022-12-16T04:11:58.162Z,23.57
2022-12-16T04:14:47.806Z,23.10
2022-12-16T04:17:38.293Z,25.13
2022-12-16T04:20:25.352Z,24.40
2022-12-16T04:23:12.743Z,25.10
2022-12-16T04:25:43.993Z,26.63
2022-12-16T04:28:12.734Z,26.07
2022-12-16T04:30:41.647Z,25.77
2022-12-16T04:33:31.007Z,28.57
2022-12-16T04:36:17.486Z,27.13
2022-12-16T04:39:05.113Z,26.60
2022-12-16T04:42:02.876Z,28.57
2022-12-16T04:44:48.943Z,27.50
2022-12-16T04:47:37.625Z,25.37
2022-12-16T04:50:24.418Z,31.20
2022-12-16T04:53:10.442Z,24.73
2022-12-16T04:56:03.898Z,29.33
2022-12-16T04:58:50.210Z,32.60
2022-12-16T05:01:18.392Z,30.13
2022-12-16T05:04:03.977Z,26.27
2022-12-16T05:06:49.575Z,28.80
2022-12-16T05:09:34.973Z,28.70
2022-12-16T05:12:22.376Z,29.40
2022-12-16T05:15:07.930Z,28.20
2022-12-16T05:17:53.563Z,29.10
2022-12-16T05:20:40.393Z,31.03
2022-12-16T05:23:31.485Z,31.23
2022-12-16T05:26:17.537Z,30.20
2022-12-16T05:29:04.246Z,28.80
2022-12-16T05:31:50.239Z,29.90
2022-12-16T05:34:35.640Z,28.33
2022-12-16T05:37:21.428Z,27.87
2022-12-16T05:40:07.181Z,27.53
2022-12-16T05:42:52.620Z,30.70
2022-12-16T05:45:39.769Z,26.93
2022-12-16T05:48:25.385Z,29.10
2022-12-16T05:51:10.860Z,34.43
2022-12-16T05:53:56.382Z,30.13
2022-12-16T05:56:41.866Z,31.53
2022-12-16T05:59:27.493Z,28.40
2022-12-16T06:02:14.672Z,31.30
2022-12-16T06:05:00.135Z,27.80
2022-12-16T06:07:45.876Z,33.37
2022-12-16T06:10:31.967Z,31.60
2022-12-16T06:13:17.346Z,31.60
2022-12-16T06:16:08.610Z,32.47
2022-12-16T06:18:56.453Z,29.17
2022-12-16T06:21:43.534Z,33.27
2022-12-16T06:24:29.264Z,30.70
2022-12-16T06:27:14.624Z,33.87
2022-12-16T06:30:00.085Z,30.40
2022-12-16T06:32:45.740Z,26.97
2022-12-16T06:35:32.567Z,32.87
2022-12-16T06:38:18.157Z,29.00
2022-12-16T06:41:05.784Z,26.83
2022-12-16T06:43:51.171Z,29.20
2022-12-16T06:46:36.649Z,34.07
2022-12-16T06:49:22.102Z,33.93
2022-12-16T06:52:08.825Z,37.33
2022-12-16T06:54:54.655Z,34.33
2022-12-16T06:57:40.336Z,32.53
2022-12-16T07:00:27.259Z,32.50
2022-12-16T07:03:12.681Z,28.10
2022-12-16T07:05:58.218Z,33.10
2022-12-16T07:08:45.129Z,34.73
2022-12-16T07:11:30.696Z,35.30
2022-12-16T07:14:16.235Z,36.83
2022-12-16T07:17:01.841Z,28.70
2022-12-16T07:19:47.248Z,34.00
2022-12-16T07:22:32.791Z,33.67
2022-12-16T07:25:19.790Z,32.90
2022-12-16T07:28:09.463Z,34.77
2022-12-16T07:31:01.213Z,31.10
2022-12-16T07:33:46.769Z,39.10
2022-12-16T07:36:32.903Z,36.07
2022-12-16T07:39:18.359Z,33.93
2022-12-16T07:42:05.152Z,35.80
2022-12-16T07:44:50.904Z,32.53
2022-12-16T07:47:37.194Z,35.70
2022-12-16T07:50:23.020Z,31.23
2022-12-16T07:53:13.464Z,33.33
2022-12-16T07:55:59.275Z,37.43
2022-12-16T07:58:46.863Z,33.03
2022-12-16T08:01:32.796Z,33.10
2022-12-16T08:04:18.911Z,32.60
2022-12-16T08:07:04.743Z,39.33
2022-12-16T08:09:50.833Z,32.90
2022-12-16T08:12:36.723Z,30.07
2022-12-16T08:15:25.208Z,31.97
2022-12-16T08:18:12.425Z,33.67
2022-12-16T08:20:58.067Z,32.13
2022-12-16T08:23:44.061Z,33.23
2022-12-16T08:26:29.637Z,36.13
2022-12-16T08:29:42.737Z,34.43
2022-12-16T08:32:22.703Z,33.70
2022-12-16T08:35:08.205Z,34.80
2022-12-16T08:37:54.115Z,30.57
2022-12-16T08:40:40.073Z,36.50
2022-12-16T08:43:25.954Z,37.73
2022-12-16T08:46:12.551Z,39.90
2022-12-16T08:49:00.134Z,33.10
2022-12-16T08:51:45.981Z,37.00
2022-12-16T08:54:31.952Z,40.27
2022-12-16T08:57:17.285Z,33.57
2022-12-16T09:00:02.858Z,31.23
2022-12-16T09:02:48.470Z,36.27
2022-12-16T09:05:35.489Z,33.17
2022-12-16T09:08:22.805Z,32.63
2022-12-16T09:11:08.894Z,34.33
2022-12-16T09:13:54.669Z,34.40
2022-12-16T09:16:40.709Z,31.47
2022-12-16T09:19:26.641Z,31.90
2022-12-16T09:22:13.866Z,29.70
2022-12-16T09:24:59.150Z,33.73
2022-12-16T09:27:44.966Z,32.07
2022-12-16T09:30:31.322Z,32.57
2022-12-16T09:33:16.816Z,31.03
2022-12-16T09:36:02.535Z,31.60
2022-12-16T09:38:49.373Z,29.87
2022-12-16T09:41:56.620Z,32.47
2022-12-16T09:45:01.686Z,32.67
2022-12-16T09:47:57.450Z,30.03
2022-12-16T09:50:55.091Z,35.20
2022-12-16T09:53:42.062Z,26.70
2022-12-16T09:56:36.155Z,30.67
2022-12-16T09:59:29.547Z,27.90
2022-12-16T10:02:15.290Z,26.37
2022-12-16T10:05:03.130Z,30.20
2022-12-16T10:07:53.203Z,28.00
2022-12-16T10:10:47.544Z,29.07
2022-12-16T10:13:40.909Z,30.47
2022-12-16T10:16:32.667Z,31.43
2022-12-16T10:19:26.344Z,30.00
2022-12-16T10:22:18.597Z,27.67
2022-12-16T10:25:11.944Z,28.37
2022-12-16T10:28:02.571Z,30.20
2022-12-16T10:30:50.331Z,29.20
2022-12-16T10:33:38.956Z,29.00
2022-12-16T10:36:32.754Z,28.47
2022-12-16T10:39:22.043Z,28.20
2022-12-16T10:42:11.812Z,30.77
2022-12-16T10:45:06.667Z,29.93
2022-12-16T10:47:53.948Z,28.33
2022-12-16T10:50:40.606Z,27.70
2022-12-16T10:53:32.676Z,28.07
2022-12-16T10:56:32.061Z,30.67
2022-12-16T10:59:22.829Z,26.10
2022-12-16T11:02:16.438Z,29.83
2022-12-16T11:05:04.608Z,28.60
2022-12-16T11:07:52.913Z,31.77
2022-12-16T11:10:53.686Z,29.87
2022-12-16T11:13:44.420Z,29.00
2022-12-16T11:16:35.877Z,27.37
2022-12-16T11:19:21.729Z,30.07
2022-12-16T11:22:05.271Z,30.53
2022-12-16T11:24:51.486Z,29.37
2022-12-16T11:27:43.281Z,27.00
2022-12-16T11:30:49.253Z,26.77
2022-12-16T11:33:40.423Z,30.33
2022-12-16T11:36:33.012Z,32.10
2022-12-16T11:39:20.896Z,28.77
2022-12-16T11:42:09.044Z,29.73
2022-12-16T11:45:01.239Z,35.03
2022-12-16T11:48:11.021Z,34.67
2022-12-16T11:50:59.961Z,24.40
2022-12-16T11:53:52.309Z,27.20
2022-12-16T11:56:43.701Z,29.50
2022-12-16T11:59:40.126Z,31.97
2022-12-16T12:02:34.020Z,32.10
2022-12-16T12:05:19.878Z,25.43
2022-12-16T12:08:12.823Z,29.17
2022-12-16T12:11:09.925Z,30.73
2022-12-16T12:14:08.519Z,23.70
2022-12-16T12:17:06.930Z,25.67
2022-12-16T12:20:03.032Z,24.70
2022-12-16T12:22:54.234Z,25.73
2022-12-16T12:25:46.998Z,27.30
2022-12-16T12:28:54.173Z,28.13
2022-12-16T12:31:52.976Z,28.20
2022-12-16T12:34:44.191Z,27.27
2022-12-16T12:37:38.974Z,27.63
2022-12-16T12:40:37.896Z,27.97
2022-12-16T12:43:32.237Z,26.70
2022-12-16T12:46:26.692Z,27.47
2022-12-16T12:49:19.452Z,25.97
2022-12-16T12:52:17.285Z,30.53
2022-12-16T12:55:11.114Z,27.07
2022-12-16T12:57:58.417Z,27.40
2022-12-16T13:00:50.639Z,28.17
2022-12-16T13:03:47.468Z,31.17
2022-12-16T13:06:36.785Z,28.23
2022-12-16T13:09:40.645Z,28.73
2022-12-16T13:12:48.777Z,25.83
2022-12-16T13:15:51.974Z,26.10
2022-12-16T13:18:47.195Z,28.30
2022-12-16T13:22:05.457Z,27.87
2022-12-16T13:25:00.918Z,25.67
2022-12-16T13:27:48.547Z,27.47
2022-12-16T13:30:41.301Z,30.83
2022-12-16T13:33:42.308Z,26.10
2022-12-16T13:36:29.524Z,29.27
2022-12-16T13:39:21.288Z,28.70
2022-12-16T13:42:16.221Z,29.77
2022-12-16T13:45:18.184Z,29.30
2022-12-16T13:48:22.649Z,27.87
2022-12-16T13:51:18.051Z,26.97
2022-12-16T13:54:08.111Z,27.80
2022-12-16T13:56:59.380Z,28.93
2022-12-16T13:59:49.625Z,27.83
2022-12-16T14:02:46.027Z,29.93
2022-12-16T14:05:37.671Z,28.17
2022-12-16T14:08:27.782Z,29.90
2022-12-16T14:11:19.563Z,25.50
2022-12-16T14:14:12.906Z,31.00
2022-12-16T14:17:09.030Z,22.60
2022-12-16T14:20:08.579Z,27.27
2022-12-16T14:23:10.657Z,23.23
2022-12-16T14:25:58.703Z,26.77
2022-12-16T14:28:47.427Z,28.20
2022-12-16T14:31:39.771Z,26.10
2022-12-16T14:34:33.683Z,26.93
2022-12-16T14:37:24.107Z,33.30
2022-12-16T14:40:11.373Z,25.50
2022-12-16T14:42:59.924Z,24.53
2022-12-16T14:45:48.887Z,28.60
2022-12-16T14:48:49.250Z,25.83
2022-12-16T14:51:44.665Z,29.87
2022-12-16T14:54:45.176Z,24.43
2022-12-16T14:57:36.329Z,27.43
2022-12-16T15:00:32.417Z,25.43
2022-12-16T15:03:23.285Z,23.07
2022-12-16T15:06:11.025Z,27.03
2022-12-16T15:09:06.540Z,24.47
2022-12-16T15:11:52.649Z,25.77
2022-12-16T15:14:46.941Z,24.97
2022-12-16T15:17:40.931Z,27.60
2022-12-16T15:20:37.728Z,23.63
2022-12-16T15:23:34.375Z,27.60
2022-12-16T15:26:20.186Z,27.17
2022-12-16T15:29:09.129Z,27.03
2022-12-16T15:32:02.698Z,22.80
2022-12-16T15:34:51.816Z,24.50
2022-12-16T15:38:00.645Z,21.03
2022-12-16T15:40:52.944Z,23.07
2022-12-16T15:43:46.341Z,21.43
2022-12-16T15:46:37.669Z,19.70
2022-12-16T15:49:24.420Z,23.43
2022-12-16T15:52:10.997Z,26.00
2022-12-16T15:55:09.777Z,25.63
2022-12-16T15:57:58.232Z,23.10
2022-12-16T16:00:45.948Z,21.83
2022-12-16T16:03:37.997Z,22.33
2022-12-16T16:06:32.479Z,22.03
2022-12-16T16:09:30.372Z,21.50
2022-12-16T16:12:16.132Z,21.93
2022-12-16T16:15:03.007Z,24.07
2022-12-16T16:17:48.888Z,27.80
2022-12-16T16:20:36.232Z,22.57
2022-12-16T16:23:22.458Z,22.63
2022-12-16T16:26:08.638Z,27.37
2022-12-16T16:28:54.626Z,25.00
2022-12-16T16:31:42.073Z,21.87
2022-12-16T16:34:30.210Z,24.77
2022-12-16T16:37:17.549Z,27.33
2022-12-16T16:40:03.713Z,22.33
2022-12-16T16:42:49.871Z,24.10
2022-12-16T16:45:35.920Z,21.90
2022-12-16T16:48:29.053Z,24.60
2022-12-16T16:51:23.943Z,28.40
2022-12-16T16:54:09.607Z,23.00
2022-12-16T16:57:08.122Z,21.13
2022-12-16T16:59:53.741Z,26.10
2022-12-16T17:02:42.040Z,23.80
2022-12-16T17:05:30.284Z,23.60
2022-12-16T17:08:16.786Z,22.80
2022-12-16T17:11:02.628Z,21.50
2022-12-16T17:13:48.307Z,21.40
2022-12-16T17:16:34.082Z,24.20
2022-12-16T17:19:22.665Z,20.83
2022-12-16T17:22:09.494Z,20.40
2022-12-16T17:24:55.035Z,19.13
2022-12-16T17:27:42.233Z,27.47
2022-12-16T17:30:34.173Z,22.43
2022-12-16T17:33:20.398Z,22.67
2022-12-16T17:36:07.676Z,19.37
2022-12-16T17:38:56.972Z,19.87
2022-12-16T17:41:42.596Z,27.77
2022-12-16T17:44:28.475Z,21.20
2022-12-16T17:47:14.215Z,24.00
2022-12-16T17:50:00.221Z,26.73
2022-12-16T17:52:45.942Z,20.40
2022-12-16T17:55:33.043Z,24.53
2022-12-16T17:58:18.931Z,21.07
2022-12-16T18:01:04.455Z,26.60
2022-12-16T18:03:50.092Z,24.60
2022-12-16T18:06:35.676Z,22.80
2022-12-16T18:09:21.808Z,23.20
2022-12-16T18:12:08.893Z,26.13
2022-12-16T18:14:54.676Z,27.10
2022-12-16T18:17:40.152Z,20.43
2022-12-16T18:20:26.735Z,28.50
2022-12-16T18:23:12.705Z,25.60
2022-12-16T18:25:58.698Z,23.60
2022-12-16T18:28:45.797Z,40.73
2022-12-16T18:31:31.590Z,33.87
2022-12-16T18:34:17.142Z,29.97
2022-12-16T18:37:53.299Z,35.13
2022-12-16T18:40:39.051Z,32.17
2022-12-16T18:43:25.146Z,35.97
2022-12-16T18:46:12.807Z,24.57
2022-12-16T18:48:58.728Z,25.90
2022-12-16T18:51:44.247Z,27.90
2022-12-16T18:54:29.715Z,25.87
2022-12-16T18:57:15.350Z,31.10
2022-12-16T19:00:00.933Z,34.30
2022-12-16T19:02:47.795Z,29.07
2022-12-16T19:05:33.416Z,23.37
2022-12-16T19:08:18.940Z,30.47
2022-12-16T19:11:04.506Z,22.50
2022-12-16T19:13:49.967Z,22.33
2022-12-16T19:16:35.598Z,27.47
2022-12-16T19:19:22.638Z,21.20
2022-12-16T19:22:08.210Z,26.90
2022-12-16T19:24:55.063Z,24.00
2022-12-16T19:27:42.387Z,23.73
2022-12-16T19:30:29.165Z,25.70
2022-12-16T19:33:14.611Z,24.80
2022-12-16T19:36:01.795Z,27.10
2022-12-16T19:38:47.540Z,20.50
2022-12-16T19:41:35.011Z,26.80
2022-12-16T19:44:20.407Z,24.20
2022-12-16T19:47:06.028Z,22.37
2022-12-16T19:49:51.801Z,22.87
2022-12-16T19:52:38.042Z,27.30
2022-12-16T19:55:24.425Z,27.00
2022-12-16T19:58:09.855Z,22.50
2022-12-16T20:00:55.713Z,24.43
2022-12-16T20:03:42.417Z,25.67
2022-12-16T20:06:28.221Z,22.53
2022-12-16T20:09:15.152Z,21.80
2022-12-16T20:12:01.787Z,26.43
2022-12-16T20:14:48.003Z,21.63
2022-12-16T20:17:33.841Z,23.53
2022-12-16T20:20:19.305Z,31.90
2022-12-16T20:23:04.640Z,37.33
2022-12-16T20:25:51.861Z,30.07
2022-12-16T20:28:37.646Z,22.70
2022-12-16T20:31:23.761Z,21.87
2022-12-16T20:34:11.837Z,22.23
2022-12-16T20:36:57.191Z,22.93
2022-12-16T20:39:44.660Z,21.23
2022-12-16T20:42:35.162Z,26.03
2022-12-16T20:45:21.036Z,26.13
2022-12-16T20:48:06.550Z,22.50
2022-12-16T20:50:52.078Z,20.17
2022-12-16T20:53:42.258Z,24.03
2022-12-16T20:56:28.067Z,26.00
2022-12-16T20:59:14.880Z,29.90
2022-12-16T21:02:22.790Z,29.40
2022-12-16T21:05:06.189Z,24.77
2022-12-16T21:07:52.457Z,31.80
2022-12-16T21:10:39.719Z,26.23
2022-12-16T21:13:26.473Z,22.67
2022-12-16T21:16:15.971Z,26.10
2022-12-16T21:19:01.707Z,30.63
2022-12-16T21:21:47.534Z,27.63
2022-12-16T21:24:33.682Z,25.10
2022-12-16T21:27:19.511Z,25.37
2022-12-16T21:30:05.018Z,22.23
2022-12-16T21:32:51.927Z,23.17
2022-12-16T21:35:39.471Z,24.63
2022-12-16T21:38:28.028Z,25.13
2022-12-16T21:41:14.249Z,23.20
2022-12-16T21:44:00.035Z,24.33
2022-12-16T21:46:45.964Z,22.93
2022-12-16T21:49:41.495Z,23.20
2022-12-16T21:52:27.458Z,26.23
2022-12-16T21:55:18.261Z,28.83
2022-12-16T21:58:03.857Z,23.00
2022-12-16T22:00:52.249Z,22.47
2022-12-16T22:03:41.895Z,24.03
2022-12-16T22:06:28.909Z,22.47
2022-12-16T22:09:14.472Z,24.67
2022-12-16T22:11:59.998Z,23.70
2022-12-16T22:14:45.461Z,23.80
2022-12-16T22:17:31.508Z,23.10
2022-12-16T22:20:17.690Z,27.17
2022-12-16T22:23:04.993Z,26.77
2022-12-16T22:25:50.722Z,23.57
2022-12-16T22:28:38.675Z,21.00
2022-12-16T22:31:23.566Z,22.27
2022-12-16T22:34:09.930Z,22.00
2022-12-16T22:36:56.542Z,23.50
2022-12-16T22:39:45.019Z,25.70
2022-12-16T22:42:30.870Z,25.13
2022-12-16T22:45:16.407Z,25.50
2022-12-16T22:48:01.935Z,25.00
2022-12-16T22:50:47.657Z,28.93
2022-12-16T22:53:33.357Z,25.17
2022-12-16T22:56:20.540Z,23.20
2022-12-16T22:59:07.694Z,26.70
2022-12-16T23:01:53.039Z,20.90
2022-12-16T23:04:39.566Z,23.60
2022-12-16T23:07:26.497Z,21.90
2022-12-16T23:10:12.130Z,25.50
2022-12-16T23:12:59.364Z,24.30
2022-12-16T23:15:44.873Z,21.80
2022-12-16T23:18:30.259Z,21.47
2022-12-16T23:21:15.958Z,21.60
2022-12-16T23:24:01.598Z,25.23
2022-12-16T23:26:47.371Z,21.20
2022-12-16T23:29:34.834Z,18.13
2022-12-16T23:32:28.998Z,26.00
2022-12-16T23:35:14.528Z,27.03
2022-12-16T23:38:00.230Z,27.10
2022-12-16T23:40:45.661Z,23.63
2022-12-16T23:43:36.516Z,20.77
2022-12-16T23:46:23.401Z,21.57
2022-12-16T23:49:09.036Z,22.87
2022-12-16T23:51:55.062Z,18.90
2022-12-16T23:54:42.242Z,22.00
2022-12-16T23:57:28.039Z,22.03
